TimeCST,TemperatureF,Dew PointF,Humidity,Sea Level PressureIn,VisibilityMPH,Wind Direction,Wind SpeedMPH,Gust SpeedMPH,PrecipitationIn,Events,Conditions,WindDirDegrees,DateUTC
12:55 AM,43.0,34.9,73,30.22,10.0,North,11.5,-,N/A,,Clear,10,2012-11-14 06:55:00
1:55 AM,42.8,35.1,74,30.21,10.0,North,9.2,-,N/A,,Clear,10,2012-11-14 07:55:00
2:55 AM,41.7,35.1,77,30.21,10.0,North,10.4,-,N/A,,Clear,360,2012-11-14 08:55:00
3:55 AM,41.2,35.2,79,30.21,10.0,North,10.4,-,N/A,,Clear,10,2012-11-14 09:55:00
4:55 AM,41.4,36.3,82,30.21,10.0,North,9.2,-,N/A,,Clear,10,2012-11-14 10:55:00
5:55 AM,41.5,36.9,83,30.22,10.0,North,8.1,-,N/A,,Clear,10,2012-11-14 11:55:00
6:55 AM,44.1,38.5,81,30.24,10.0,North,5.8,-,N/A,,Clear,10,2012-11-14 12:55:00
7:55 AM,47.1,41.9,82,30.26,10.0,NNW,5.8,-,N/A,,Clear,340,2012-11-14 13:55:00
8:52 AM,50.0,46.4,87,30.26,10.0,North,3.5,-,N/A,,Light Drizzle,10,2012-11-14 14:52:00
8:55 AM,51.3,46.4,83,30.26,10.0,Calm,Calm,-,0.00,,Light Drizzle,0,2012-11-14 14:55:00
9:11 AM,53.6,48.2,82,30.26,10.0,NW,3.5,-,N/A,,Partly Cloudy,320,2012-11-14 15:11:00
9:12 AM,53.6,48.2,82,30.26,10.0,NW,3.5,-,N/A,Rain,Light Rain,320,2012-11-14 15:12:00
9:55 AM,57.7,51.4,79,30.25,10.0,Variable,4.6,-,0.00,Rain,Light Rain,0,2012-11-14 15:55:00
10:03 AM,57.2,51.8,82,30.25,10.0,East,4.6,-,N/A,,Mostly Cloudy,80,2012-11-14 16:03:00
10:04 AM,57.2,51.8,82,30.25,10.0,East,4.6,-,N/A,Rain,Light Rain,80,2012-11-14 16:04:00
10:06 AM,57.2,51.8,82,30.25,10.0,East,4.6,-,N/A,,Mostly Cloudy,80,2012-11-14 16:06:00
10:41 AM,57.2,51.8,82,30.25,10.0,ENE,3.5,-,N/A,,Light Drizzle,70,2012-11-14 16:41:00
10:55 AM,57.0,51.6,82,30.25,10.0,Calm,Calm,-,0.00,,Light Drizzle,0,2012-11-14 16:55:00
11:13 AM,59.0,51.8,77,30.24,10.0,NE,4.6,-,N/A,,Overcast,50,2012-11-14 17:13:00
11:19 AM,59.0,53.6,82,30.23,10.0,ENE,3.5,-,N/A,,Light Drizzle,60,2012-11-14 17:19:00
11:39 AM,59.0,51.8,77,30.23,10.0,Calm,Calm,-,N/A,,Mostly Cloudy,0,2012-11-14 17:39:00
11:44 AM,59.0,53.6,82,30.22,10.0,Variable,3.5,-,N/A,,Light Drizzle,0,2012-11-14 17:44:00
11:55 AM,60.3,53.1,77,30.22,10.0,Calm,Calm,-,0.00,,Light Drizzle,0,2012-11-14 17:55:00
11:58 AM,60.8,53.6,77,30.22,10.0,Calm,Calm,-,N/A,,Light Drizzle,0,2012-11-14 17:58:00
12:55 PM,63.9,54.5,72,30.19,10.0,South,6.9,-,0.00,Rain,Light Rain,180,2012-11-14 18:55:00
1:08 PM,62.6,53.6,72,30.19,10.0,South,5.8,-,N/A,,Partly Cloudy,170,2012-11-14 19:08:00
1:18 PM,62.6,55.4,77,30.19,10.0,Variable,3.5,-,N/A,,Light Drizzle,0,2012-11-14 19:18:00
1:21 PM,62.6,55.4,77,30.19,10.0,SSE,4.6,-,N/A,,Partly Cloudy,160,2012-11-14 19:21:00
1:23 PM,62.6,55.4,77,30.19,10.0,South,3.5,-,N/A,,Light Drizzle,170,2012-11-14 19:23:00
1:34 PM,62.6,55.4,77,30.18,10.0,Variable,3.5,-,N/A,,Clear,0,2012-11-14 19:34:00
1:47 PM,62.6,55.4,77,30.18,10.0,Variable,3.5,-,N/A,,Light Drizzle,0,2012-11-14 19:47:00
1:55 PM,63.5,55.4,75,30.18,10.0,Variable,4.6,-,0.00,,Light Drizzle,0,2012-11-14 19:55:00
2:03 PM,64.4,55.4,73,30.18,10.0,Calm,Calm,-,N/A,,Clear,0,2012-11-14 20:03:00
2:14 PM,64.4,53.6,68,30.18,10.0,NNE,6.9,-,N/A,,Light Drizzle,20,2012-11-14 20:14:00
2:24 PM,64.4,53.6,68,30.18,10.0,Calm,Calm,-,N/A,,Partly Cloudy,0,2012-11-14 20:24:00
2:25 PM,64.4,53.6,68,30.18,10.0,Variable,3.5,-,N/A,,Light Drizzle,0,2012-11-14 20:25:00
2:51 PM,64.4,55.4,73,30.17,10.0,NNE,11.5,-,N/A,,Partly Cloudy,20,2012-11-14 20:51:00
2:55 PM,63.9,54.9,72,30.17,10.0,NNE,11.5,-,0.00,,Partly Cloudy,30,2012-11-14 20:55:00
3:05 PM,62.6,55.4,77,30.18,10.0,NNE,10.4,-,N/A,Rain,Light Rain,20,2012-11-14 21:05:00
3:07 PM,62.6,55.4,77,30.18,10.0,NNE,10.4,-,N/A,,Clear,30,2012-11-14 21:07:00
3:30 PM,60.8,53.6,77,30.19,10.0,NNE,9.2,-,N/A,,Light Drizzle,30,2012-11-14 21:30:00
3:46 PM,60.8,53.6,77,30.19,10.0,NNE,10.4,-,N/A,,Clear,20,2012-11-14 21:46:00
3:55 PM,59.9,54.0,81,30.19,10.0,NNE,10.4,-,0.00,,Clear,20,2012-11-14 21:55:00
4:55 PM,56.7,53.1,88,30.20,10.0,NNE,6.9,-,N/A,,Partly Cloudy,20,2012-11-14 22:55:00
5:06 PM,55.4,53.6,94,30.21,10.0,NNE,4.6,-,N/A,,Mostly Cloudy,20,2012-11-14 23:06:00
5:33 PM,57.2,53.6,88,30.21,10.0,NNE,6.9,-,N/A,,Overcast,20,2012-11-14 23:33:00
5:43 PM,57.2,53.6,88,30.21,10.0,NNE,6.9,-,N/A,,Overcast,20,2012-11-14 23:43:00
5:49 PM,57.2,53.6,88,30.21,10.0,NNE,5.8,-,N/A,,Overcast,30,2012-11-14 23:49:00
5:55 PM,57.0,54.1,90,30.21,10.0,NNE,6.9,-,N/A,,Overcast,30,2012-11-14 23:55:00
6:03 PM,57.2,53.6,88,30.22,10.0,NE,6.9,-,N/A,,Overcast,40,2012-11-15 00:03:00
6:55 PM,57.0,54.5,91,30.22,10.0,NNE,9.2,-,N/A,,Overcast,30,2012-11-15 00:55:00
7:11 PM,57.2,55.4,94,30.22,10.0,NNE,6.9,-,N/A,,Overcast,30,2012-11-15 01:11:00
7:42 PM,57.2,55.4,94,30.22,10.0,NNE,8.1,-,N/A,,Overcast,30,2012-11-15 01:42:00
7:48 PM,57.2,53.6,88,30.22,10.0,NNE,10.4,-,N/A,,Light Drizzle,30,2012-11-15 01:48:00
7:50 PM,55.4,53.6,94,30.22,10.0,NNE,9.2,-,N/A,,Light Drizzle,20,2012-11-15 01:50:00
7:55 PM,55.9,54.3,94,30.22,10.0,NNE,9.2,-,0.00,,Light Drizzle,20,2012-11-15 01:55:00
8:00 PM,55.4,53.6,94,30.23,10.0,NNE,9.2,-,N/A,,Overcast,30,2012-11-15 02:00:00
8:55 PM,55.2,54.3,97,30.23,10.0,NNE,9.2,-,0.00,,Overcast,20,2012-11-15 02:55:00
9:40 PM,55.4,53.6,94,30.22,10.0,NNE,5.8,-,N/A,,Overcast,30,2012-11-15 03:40:00
9:41 PM,55.4,53.6,94,30.22,10.0,NNE,5.8,-,N/A,,Overcast,30,2012-11-15 03:41:00
9:55 PM,55.2,54.1,96,30.22,10.0,NE,6.9,-,N/A,,Overcast,40,2012-11-15 03:55:00
10:55 PM,55.0,54.0,96,30.22,10.0,NE,6.9,-,N/A,,Overcast,40,2012-11-15 04:55:00
11:55 PM,54.7,53.8,97,30.20,10.0,NNE,5.8,-,N/A,,Overcast,30,2012-11-15 05:55:00